createdAt,value
2023-04-07T00:04:37.297Z,-65
2023-04-07T00:09:38.588Z,-64
2023-04-07T00:14:39.770Z,-64
2023-04-07T00:19:41.063Z,-64
2023-04-07T00:24:42.311Z,-64
2023-04-07T00:29:46.871Z,-64
2023-04-07T00:34:48.054Z,-64
2023-04-07T00:39:51.269Z,-64
2023-04-07T00:44:52.475Z,-64
2023-04-07T00:49:53.670Z,-64
2023-04-07T00:54:55.179Z,-65
2023-04-07T00:59:56.458Z,-65
2023-04-07T01:04:57.799Z,-64
2023-04-07T01:10:00.649Z,-64
2023-04-07T01:15:01.888Z,-65
2023-04-07T01:20:08.275Z,-64
2023-04-07T01:25:09.512Z,-65
2023-04-07T01:30:10.786Z,-64
2023-04-07T01:35:11.939Z,-64
2023-04-07T01:40:13.160Z,-64
2023-04-07T01:45:14.444Z,-64
2023-04-07T01:50:16.760Z,-65
2023-04-07T01:55:17.960Z,-64
2023-04-07T02:00:19.129Z,-65
2023-04-07T02:05:20.401Z,-65
2023-04-07T02:10:21.597Z,-64
2023-04-07T02:15:22.789Z,-64
2023-04-07T02:20:24.005Z,-65
2023-04-07T02:25:25.461Z,-64
2023-04-07T02:30:26.670Z,-64
2023-04-07T02:35:27.877Z,-64
2023-04-07T02:40:29.069Z,-65
2023-04-07T02:45:30.274Z,-64
2023-04-07T02:50:31.663Z,-64
2023-04-07T02:55:32.845Z,-64
2023-04-07T03:00:33.991Z,-64
2023-04-07T03:05:35.210Z,-64
2023-04-07T03:10:36.472Z,-64
2023-04-07T03:15:37.639Z,-64
2023-04-07T03:20:39.079Z,-64
2023-04-07T03:25:40.716Z,-64
2023-04-07T03:30:41.968Z,-64
2023-04-07T03:35:43.221Z,-64
2023-04-07T03:40:44.386Z,-64
2023-04-07T03:45:45.942Z,-64
2023-04-07T03:50:47.272Z,-64
2023-04-07T03:55:48.460Z,-65
2023-04-07T04:00:49.620Z,-64
2023-04-07T04:05:51.027Z,-65
2023-04-07T04:10:52.253Z,-65
2023-04-07T04:15:53.530Z,-64
2023-04-07T04:20:54.772Z,-65
2023-04-07T04:25:56.829Z,-65
2023-04-07T04:30:58.050Z,-65
2023-04-07T04:35:59.222Z,-65
2023-04-07T04:41:00.491Z,-65
2023-04-07T04:46:01.676Z,-65
2023-04-07T04:51:02.827Z,-65
2023-04-07T04:56:04.049Z,-64
2023-04-07T05:01:05.672Z,-64
2023-04-07T05:06:06.878Z,-64
2023-04-07T05:11:08.080Z,-64
2023-04-07T05:16:09.336Z,-65
2023-04-07T05:21:10.987Z,-64
2023-04-07T05:26:12.238Z,-64
2023-04-07T05:31:13.488Z,-65
2023-04-07T05:36:14.801Z,-69
2023-04-07T05:41:16.083Z,-65
2023-04-07T05:46:17.285Z,-68
2023-04-07T05:51:18.584Z,-65
2023-04-07T05:56:19.718Z,-65
2023-04-07T06:01:21.131Z,-65
2023-04-07T06:06:22.296Z,-65
2023-04-07T06:11:23.470Z,-65
2023-04-07T06:16:24.672Z,-66
2023-04-07T06:21:27.583Z,-65
2023-04-07T06:26:28.855Z,-69
2023-04-07T06:31:30.239Z,-65
2023-04-07T06:36:31.483Z,-66
2023-04-07T06:41:32.991Z,-65
2023-04-07T06:46:34.395Z,-68
2023-04-07T06:51:35.635Z,-65
2023-04-07T06:56:36.892Z,-65
2023-04-07T07:01:38.217Z,-65
2023-04-07T07:06:39.530Z,-65
2023-04-07T07:11:41.139Z,-66
2023-04-07T07:16:42.351Z,-65
2023-04-07T07:21:43.549Z,-65
2023-04-07T07:26:45.881Z,-65
2023-04-07T07:31:47.071Z,-65
2023-04-07T07:36:48.262Z,-65
2023-04-07T07:41:50.574Z,-65
2023-04-07T07:46:51.827Z,-65
2023-04-07T07:51:53.204Z,-65
2023-04-07T07:56:54.424Z,-65
2023-04-07T08:01:55.829Z,-65
2023-04-07T08:06:57.123Z,-65
2023-04-07T08:11:58.346Z,-70
2023-04-07T08:16:59.584Z,-65
2023-04-07T08:22:00.790Z,-68
2023-04-07T08:27:02.187Z,-70
2023-04-07T08:32:03.443Z,-69
2023-04-07T08:37:04.629Z,-67
2023-04-07T08:42:05.813Z,-64
2023-04-07T08:47:07.865Z,-65
2023-04-07T08:52:09.607Z,-64
2023-04-07T08:57:11.354Z,-64
2023-04-07T09:02:12.551Z,-64
2023-04-07T09:07:13.712Z,-64
2023-04-07T09:12:14.917Z,-66
2023-04-07T09:17:16.187Z,-66
2023-04-07T09:22:17.348Z,-66
2023-04-07T09:27:18.547Z,-66
2023-04-07T09:32:19.677Z,-67
2023-04-07T09:37:20.823Z,-66
2023-04-07T09:42:22.379Z,-67
2023-04-07T09:47:23.620Z,-68
2023-04-07T09:52:24.869Z,-68
2023-04-07T09:57:26.087Z,-67
2023-04-07T10:02:27.369Z,-68
2023-04-07T10:07:28.669Z,-67
2023-04-07T10:12:31.148Z,-68
2023-04-07T10:17:32.555Z,-67
2023-04-07T10:22:33.939Z,-68
2023-04-07T10:27:35.095Z,-68
2023-04-07T10:32:36.483Z,-68
2023-04-07T10:37:37.756Z,-68
2023-04-07T10:42:38.963Z,-68
2023-04-07T10:47:40.135Z,-68
2023-04-07T10:52:41.382Z,-69
2023-04-07T10:57:42.854Z,-65
2023-04-07T11:02:44.402Z,-74
2023-04-07T11:07:46.004Z,-68
2023-04-07T11:12:47.185Z,-67
2023-04-07T11:17:48.341Z,-70
2023-04-07T11:22:49.545Z,-69
2023-04-07T11:27:50.711Z,-70
2023-04-07T11:32:51.885Z,-70
2023-04-07T11:37:53.096Z,-65
2023-04-07T11:42:54.305Z,-68
2023-04-07T11:47:55.783Z,-66
2023-04-07T11:52:57.029Z,-65
2023-04-07T11:57:58.228Z,-68
2023-04-07T12:02:59.490Z,-65
2023-04-07T12:08:00.738Z,-66
2023-04-07T12:13:02.353Z,-65
2023-04-07T12:18:03.599Z,-65
2023-04-07T12:23:04.869Z,-66
2023-04-07T12:28:06.045Z,-66
2023-04-07T12:33:07.269Z,-69
2023-04-07T12:38:08.597Z,-68
2023-04-07T12:43:09.824Z,-65
2023-04-07T12:48:11.109Z,-68
2023-04-07T12:53:12.347Z,-66
2023-04-07T12:58:13.568Z,-67
2023-04-07T13:03:14.948Z,-67
2023-04-07T13:08:16.272Z,-66
2023-04-07T13:13:17.468Z,-65
2023-04-07T13:18:18.677Z,-65
2023-04-07T13:23:19.897Z,-67
2023-04-07T13:28:21.485Z,-66
2023-04-07T13:33:22.742Z,-66
2023-04-07T13:38:23.918Z,-66
2023-04-07T13:43:25.506Z,-67
2023-04-07T13:48:26.700Z,-68
2023-04-07T13:53:27.920Z,-67
2023-04-07T13:58:30.571Z,-67
2023-04-07T14:03:33.213Z,-71
2023-04-07T14:08:34.489Z,-67
2023-04-07T14:13:36.499Z,-69
2023-04-07T14:18:37.780Z,-68
2023-04-07T14:23:39.042Z,-68
2023-04-07T14:28:40.587Z,-68
2023-04-07T14:33:41.829Z,-67
2023-04-07T14:38:43.096Z,-67
2023-04-07T14:43:44.226Z,-68
2023-04-07T14:48:46.120Z,-71
2023-04-07T14:53:47.688Z,-69
2023-04-07T14:58:48.980Z,-71
2023-04-07T15:03:51.296Z,-70
2023-04-07T15:08:52.761Z,-68
2023-04-07T15:13:54.473Z,-72
2023-04-07T15:18:56.264Z,-72
2023-04-07T15:23:57.422Z,-71
2023-04-07T15:28:58.578Z,-70
2023-04-07T15:33:59.733Z,-71
2023-04-07T15:39:02.141Z,-71
2023-04-07T15:44:03.386Z,-71
2023-04-07T15:49:04.592Z,-71
2023-04-07T15:54:05.737Z,-72
2023-04-07T15:59:06.933Z,-71
2023-04-07T16:04:08.226Z,-73
2023-04-07T16:09:09.614Z,-73
2023-04-07T16:14:10.811Z,-70
2023-04-07T16:19:12.800Z,-73
2023-04-07T16:24:14.279Z,-71
2023-04-07T16:29:15.602Z,-73
2023-04-07T16:34:16.940Z,-73
2023-04-07T16:39:18.272Z,-71
2023-04-07T16:44:22.023Z,-72
2023-04-07T16:49:23.270Z,-72
2023-04-07T16:54:24.518Z,-72
2023-04-07T16:59:25.928Z,-72
2023-04-07T17:04:27.249Z,-72
2023-04-07T17:09:28.529Z,-71
2023-04-07T17:14:29.993Z,-72
2023-04-07T17:19:31.369Z,-73
2023-04-07T17:24:32.620Z,-72
2023-04-07T17:29:33.800Z,-68
2023-04-07T17:34:35.257Z,-69
2023-04-07T17:39:36.389Z,-68
2023-04-07T17:44:37.569Z,-68
2023-04-07T17:49:39.483Z,-68
2023-04-07T17:54:41.152Z,-69
2023-04-07T17:59:42.340Z,-67
2023-04-07T18:04:43.630Z,-71
2023-04-07T18:09:44.923Z,-67
2023-04-07T18:14:46.145Z,-68
2023-04-07T18:19:47.420Z,-69
2023-04-07T18:24:48.576Z,-68
2023-04-07T18:29:49.787Z,-68
2023-04-07T18:34:51.119Z,-67
2023-04-07T18:39:53.668Z,-67
2023-04-07T18:44:54.892Z,-67
2023-04-07T18:49:58.157Z,-68
2023-04-07T18:54:59.342Z,-66
2023-04-07T19:00:00.554Z,-67
2023-04-07T19:05:01.846Z,-67
2023-04-07T19:10:03.066Z,-67
2023-04-07T19:15:04.201Z,-68
2023-04-07T19:20:05.412Z,-68
2023-04-07T19:25:06.597Z,-67
2023-04-07T19:30:07.777Z,-68
2023-04-07T19:35:09.069Z,-67
2023-04-07T19:40:10.293Z,-67
2023-04-07T19:45:11.576Z,-67
2023-04-07T19:50:14.251Z,-67
2023-04-07T19:55:15.493Z,-68
2023-04-07T20:00:16.929Z,-68
2023-04-07T20:05:18.125Z,-67
2023-04-07T20:10:19.262Z,-67
2023-04-07T20:15:21.248Z,-67
2023-04-07T20:20:23.497Z,-67
2023-04-07T20:25:24.738Z,-66
2023-04-07T20:30:26.265Z,-66
2023-04-07T20:35:27.491Z,-66
2023-04-07T20:40:28.765Z,-66
2023-04-07T20:45:29.992Z,-68
2023-04-07T20:50:31.210Z,-66
2023-04-07T20:55:32.721Z,-66
2023-04-07T21:00:33.911Z,-66
2023-04-07T21:05:35.229Z,-67
2023-04-07T21:10:36.673Z,-66
2023-04-07T21:15:37.964Z,-66
2023-04-07T21:20:39.242Z,-66
2023-04-07T21:25:40.451Z,-66
2023-04-07T21:30:44.815Z,-69
2023-04-07T21:35:47.127Z,-66
2023-04-07T21:40:49.575Z,-66
2023-04-07T21:45:50.743Z,-66
2023-04-07T21:50:52.101Z,-66
2023-04-07T21:55:53.380Z,-66
2023-04-07T22:00:54.739Z,-66
2023-04-07T22:05:56.398Z,-66
2023-04-07T22:10:58.733Z,-66
2023-04-07T22:16:02.096Z,-66
2023-04-07T22:21:03.289Z,-66
2023-04-07T22:26:04.510Z,-66
2023-04-07T22:31:05.743Z,-66
2023-04-07T22:36:07.024Z,-66
2023-04-07T22:41:08.221Z,-66
2023-04-07T22:46:09.427Z,-66
2023-04-07T22:51:11.027Z,-66
2023-04-07T22:56:12.200Z,-66
2023-04-07T23:01:13.407Z,-66
2023-04-07T23:06:14.692Z,-66
2023-04-07T23:11:16.327Z,-66
2023-04-07T23:16:17.604Z,-66
2023-04-07T23:21:18.760Z,-68
2023-04-07T23:26:20.072Z,-66
2023-04-07T23:31:21.311Z,-66
2023-04-07T23:36:22.609Z,-66
2023-04-07T23:41:23.836Z,-66
2023-04-07T23:46:25.194Z,-66
2023-04-07T23:51:27.635Z,-66
2023-04-07T23:56:28.987Z,-67
